Time,TemperatureF,DewpointF,PressureIn,WindDirection,WindDirectionDegrees,WindSpeedMPH,WindSpeedGustMPH,Humidity,HourlyPrecipIn,Conditions,Clouds,dailyrainin,SolarRadiationWatts/m^2,SoftwareType,DateUTC
2013-04-17 00:05:00,75.7,73.0,30.11,ESE,117,6.0,-999.0,90,-99.99,,,0.00,0,weatherlink.com 1.10,2013-04-17 04:05:00,
2013-04-17 00:20:00,75.4,72.0,30.11,East,87,0.0,-999.0,90,-99.99,,,0.00,0,weatherlink.com 1.10,2013-04-17 04:20:00,
2013-04-17 00:35:00,75.1,72.0,30.11,NE,53,1.0,-999.0,90,-99.99,,,0.00,0,weatherlink.com 1.10,2013-04-17 04:35:00,
2013-04-17 00:50:00,74.9,72.0,30.11,East,94,1.0,-999.0,90,-99.99,,,0.00,0,weatherlink.com 1.10,2013-04-17 04:50:00,
2013-04-17 01:05:00,74.7,72.0,30.10,East,98,1.0,-999.0,90,-99.99,,,0.00,0,weatherlink.com 1.10,2013-04-17 05:05:00,
2013-04-17 01:20:00,74.4,71.0,30.10,NE,49,0.0,-999.0,89,-99.99,,,0.00,0,weatherlink.com 1.10,2013-04-17 05:20:00,
2013-04-17 01:35:00,74.1,71.0,30.09,East,84,0.0,-999.0,90,-99.99,,,0.00,0,weatherlink.com 1.10,2013-04-17 05:35:00,
2013-04-17 01:50:00,73.8,71.0,30.09,East,81,0.0,-999.0,90,-99.99,,,0.00,0,weatherlink.com 1.10,2013-04-17 05:50:00,
2013-04-17 02:05:00,73.5,71.0,30.09,ESE,115,4.0,-999.0,91,-99.99,,,0.00,0,weatherlink.com 1.10,2013-04-17 06:05:00,
2013-04-17 02:20:00,73.2,71.0,30.08,ESE,106,4.0,-999.0,91,-99.99,,,0.00,0,weatherlink.com 1.10,2013-04-17 06:20:00,
2013-04-17 02:35:00,73.0,70.0,30.08,ENE,65,1.0,-999.0,91,-99.99,,,0.00,0,weatherlink.com 1.10,2013-04-17 06:35:00,
2013-04-17 02:50:00,72.8,70.0,30.07,East,90,1.0,-999.0,92,-99.99,,,0.00,0,weatherlink.com 1.10,2013-04-17 06:50:00,
2013-04-17 03:05:00,72.6,70.0,30.07,East,82,0.0,-999.0,92,-99.99,,,0.00,0,weatherlink.com 1.10,2013-04-17 07:05:00,
2013-04-17 03:20:00,72.2,70.0,30.07,ENE,74,0.0,-999.0,92,-99.99,,,0.00,0,weatherlink.com 1.10,2013-04-17 07:20:00,
2013-04-17 03:35:00,71.9,70.0,30.07,NE,53,2.0,-999.0,93,-99.99,,,0.00,0,weatherlink.com 1.10,2013-04-17 07:35:00,
2013-04-17 03:50:00,71.9,70.0,30.07,NE,34,4.0,-999.0,93,-99.99,,,0.00,0,weatherlink.com 1.10,2013-04-17 07:50:00,
2013-04-17 04:05:00,71.7,70.0,30.06,NE,37,0.0,-999.0,93,-99.99,,,0.00,0,weatherlink.com 1.10,2013-04-17 08:05:00,
2013-04-17 04:20:00,71.5,69.0,30.07,NE,51,2.0,-999.0,93,-99.99,,,0.00,0,weatherlink.com 1.10,2013-04-17 08:20:00,
2013-04-17 04:35:00,71.2,69.0,30.06,ENE,63,1.0,-999.0,93,-99.99,,,0.00,0,weatherlink.com 1.10,2013-04-17 08:35:00,
2013-04-17 04:50:00,71.0,69.0,30.06,ENE,57,0.0,-999.0,93,-99.99,,,0.00,0,weatherlink.com 1.10,2013-04-17 08:50:00,
2013-04-17 05:05:00,71.1,69.0,30.06,East,101,2.0,-999.0,94,-99.99,,,0.00,0,weatherlink.com 1.10,2013-04-17 09:05:00,
2013-04-17 05:20:00,71.2,69.0,30.06,ENE,72,0.0,-999.0,94,-99.99,,,0.00,0,weatherlink.com 1.10,2013-04-17 09:20:00,
2013-04-17 05:35:00,71.2,69.0,30.06,East,99,0.0,-999.0,93,-99.99,,,0.00,0,weatherlink.com 1.10,2013-04-17 09:35:00,
2013-04-17 05:50:00,71.1,69.0,30.06,NE,50,0.0,-999.0,93,-99.99,,,0.00,0,weatherlink.com 1.10,2013-04-17 09:50:00,
2013-04-17 06:05:00,71.0,69.0,30.06,East,98,1.0,-999.0,93,-99.99,,,0.00,0,weatherlink.com 1.10,2013-04-17 10:05:00,
2013-04-17 06:20:00,70.8,69.0,30.07,East,80,0.0,-999.0,93,-99.99,,,0.00,0,weatherlink.com 1.10,2013-04-17 10:20:00,
2013-04-17 06:35:00,70.8,69.0,30.07,ENE,67,0.0,-999.0,93,-99.99,,,0.00,0,weatherlink.com 1.10,2013-04-17 10:35:00,
2013-04-17 06:50:00,70.7,69.0,30.08,East,79,0.0,-999.0,93,-99.99,,,0.00,0,weatherlink.com 1.10,2013-04-17 10:50:00,
2013-04-17 07:05:00,70.7,69.0,30.08,ENE,57,2.0,-999.0,93,-99.99,,,0.00,5,weatherlink.com 1.10,2013-04-17 11:05:00,
2013-04-17 07:20:00,70.8,69.0,30.09,ENE,71,0.0,-999.0,93,-99.99,,,0.00,18,weatherlink.com 1.10,2013-04-17 11:20:00,
2013-04-17 07:35:00,71.1,69.0,30.09,NE,41,2.0,-999.0,93,-99.99,,,0.00,49,weatherlink.com 1.10,2013-04-17 11:35:00,
2013-04-17 07:50:00,71.8,69.0,30.09,NE,56,3.0,-999.0,92,-99.99,,,0.00,90,weatherlink.com 1.10,2013-04-17 11:50:00,
2013-04-17 08:05:00,72.6,70.0,30.10,NE,49,2.0,-999.0,90,-99.99,,,0.00,132,weatherlink.com 1.10,2013-04-17 12:05:00,
2013-04-17 08:20:00,73.7,70.0,30.10,NE,47,4.0,-999.0,89,-99.99,,,0.00,192,weatherlink.com 1.10,2013-04-17 12:20:00,
2013-04-17 08:35:00,74.6,71.0,30.10,ESE,111,6.0,-999.0,87,-99.99,,,0.00,253,weatherlink.com 1.10,2013-04-17 12:35:00,
2013-04-17 08:50:00,75.5,71.0,30.10,ENE,69,5.0,-999.0,85,-99.99,,,0.00,308,weatherlink.com 1.10,2013-04-17 12:50:00,
2013-04-17 09:05:00,76.3,71.0,30.10,ENE,74,4.0,-999.0,83,-99.99,,,0.00,364,weatherlink.com 1.10,2013-04-17 13:05:00,
2013-04-17 09:20:00,77.5,72.0,30.10,ENE,59,4.0,-999.0,82,-99.99,,,0.00,411,weatherlink.com 1.10,2013-04-17 13:20:00,
2013-04-17 09:35:00,78.8,72.0,30.10,East,90,5.0,-999.0,79,-99.99,,,0.00,466,weatherlink.com 1.10,2013-04-17 13:35:00,
2013-04-17 09:50:00,79.6,72.0,30.10,ENE,58,3.0,-999.0,78,-99.99,,,0.00,519,weatherlink.com 1.10,2013-04-17 13:50:00,
2013-04-17 10:05:00,80.2,72.0,30.09,ENE,78,5.0,-999.0,77,-99.99,,,0.00,561,weatherlink.com 1.10,2013-04-17 14:05:00,
2013-04-17 10:20:00,81.0,72.0,30.09,NE,53,3.0,-999.0,75,-99.99,,,0.00,608,weatherlink.com 1.10,2013-04-17 14:20:00,
2013-04-17 10:35:00,82.1,73.0,30.09,East,95,0.0,-999.0,73,-99.99,,,0.00,671,weatherlink.com 1.10,2013-04-17 14:35:00,
2013-04-17 10:50:00,82.5,73.0,30.09,East,84,1.0,-999.0,72,-99.99,,,0.00,710,weatherlink.com 1.10,2013-04-17 14:50:00,
2013-04-17 11:05:00,83.3,73.0,30.09,NNE,28,4.0,-999.0,72,-99.99,,,0.00,749,weatherlink.com 1.10,2013-04-17 15:05:00,
2013-04-17 11:20:00,83.8,73.0,30.09,ENE,74,2.0,-999.0,70,-99.99,,,0.00,817,weatherlink.com 1.10,2013-04-17 15:20:00,
2013-04-17 11:35:00,83.8,73.0,30.08,NE,55,2.0,-999.0,71,-99.99,,,0.00,853,weatherlink.com 1.10,2013-04-17 15:35:00,
2013-04-17 11:50:00,84.5,74.0,30.08,East,101,5.0,-999.0,70,-99.99,,,0.00,1016,weatherlink.com 1.10,2013-04-17 15:50:00,
2013-04-17 12:05:00,85.6,73.0,30.07,ENE,66,3.0,-999.0,67,-99.99,,,0.00,925,weatherlink.com 1.10,2013-04-17 16:05:00,
2013-04-17 12:20:00,86.5,74.0,30.07,South,180,3.0,-999.0,66,-99.99,,,0.00,918,weatherlink.com 1.10,2013-04-17 16:20:00,
2013-04-17 12:35:00,86.5,73.0,30.07,ENE,65,0.0,-999.0,64,-99.99,,,0.00,991,weatherlink.com 1.10,2013-04-17 16:35:00,
2013-04-17 12:50:00,86.6,73.0,30.06,East,94,2.0,-999.0,64,-99.99,,,0.00,1030,weatherlink.com 1.10,2013-04-17 16:50:00,
2013-04-17 13:05:00,87.4,73.0,30.05,East,92,2.0,-999.0,62,-99.99,,,0.00,1099,weatherlink.com 1.10,2013-04-17 17:05:00,
2013-04-17 13:20:00,87.0,73.0,30.05,ENE,77,3.0,-999.0,63,-99.99,,,0.00,1097,weatherlink.com 1.10,2013-04-17 17:20:00,
2013-04-17 13:35:00,87.5,72.0,30.04,ESE,110,2.0,-999.0,61,-99.99,,,0.00,251,weatherlink.com 1.10,2013-04-17 17:35:00,
2013-04-17 13:50:00,86.7,72.0,30.04,East,101,0.0,-999.0,61,-99.99,,,0.00,267,weatherlink.com 1.10,2013-04-17 17:50:00,
2013-04-17 14:05:00,88.6,73.0,30.03,East,96,0.0,-999.0,60,-99.99,,,0.00,1114,weatherlink.com 1.10,2013-04-17 18:05:00,
2013-04-17 14:20:00,87.9,71.0,30.03,ENE,66,1.0,-999.0,57,-99.99,,,0.00,257,weatherlink.com 1.10,2013-04-17 18:20:00,
2013-04-17 14:35:00,87.2,71.0,30.02,NE,55,2.0,-999.0,58,-99.99,,,0.00,258,weatherlink.com 1.10,2013-04-17 18:35:00,
2013-04-17 14:50:00,87.4,71.0,30.02,NE,41,3.0,-999.0,58,-99.99,,,0.00,404,weatherlink.com 1.10,2013-04-17 18:50:00,
2013-04-17 15:05:00,90.2,71.0,30.01,ENE,58,1.0,-999.0,53,-99.99,,,0.00,1002,weatherlink.com 1.10,2013-04-17 19:05:00,
2013-04-17 15:20:00,91.2,71.0,30.01,NE,47,0.0,-999.0,51,-99.99,,,0.00,392,weatherlink.com 1.10,2013-04-17 19:20:00,
2013-04-17 15:35:00,91.5,70.0,30.00,ENE,59,0.0,-999.0,50,-99.99,,,0.00,332,weatherlink.com 1.10,2013-04-17 19:35:00,
2013-04-17 15:50:00,89.2,70.0,30.00,ENE,62,1.0,-999.0,54,-99.99,,,0.00,125,weatherlink.com 1.10,2013-04-17 19:50:00,
2013-04-17 16:05:00,87.1,70.0,30.00,NE,40,1.0,-999.0,58,-99.99,,,0.00,197,weatherlink.com 1.10,2013-04-17 20:05:00,
2013-04-17 16:20:00,86.6,71.0,30.00,NE,46,0.0,-999.0,59,-99.99,,,0.00,171,weatherlink.com 1.10,2013-04-17 20:20:00,
2013-04-17 16:35:00,85.0,74.0,30.01,ESE,119,2.0,-999.0,70,-99.99,,,0.00,186,weatherlink.com 1.10,2013-04-17 20:35:00,
2013-04-17 16:50:00,84.6,76.0,30.01,ESE,121,1.0,-999.0,76,-99.99,,,0.00,529,weatherlink.com 1.10,2013-04-17 20:50:00,
2013-04-17 17:05:00,84.5,75.0,30.01,SW,236,0.0,-999.0,74,-99.99,,,0.00,221,weatherlink.com 1.10,2013-04-17 21:05:00,
2013-04-17 17:20:00,83.0,75.0,30.00,SW,225,5.0,-999.0,76,-99.99,,,0.00,151,weatherlink.com 1.10,2013-04-17 21:20:00,
2013-04-17 17:35:00,82.5,75.0,30.00,SW,235,3.0,-999.0,77,-99.99,,,0.00,134,weatherlink.com 1.10,2013-04-17 21:35:00,
2013-04-17 17:50:00,82.7,75.0,30.01,WNW,286,0.0,-999.0,77,-99.99,,,0.00,134,weatherlink.com 1.10,2013-04-17 21:50:00,
2013-04-17 18:05:00,82.0,75.0,30.00,WSW,249,4.0,-999.0,80,-99.99,,,0.00,104,weatherlink.com 1.10,2013-04-17 22:05:00,
2013-04-17 18:20:00,81.1,75.0,30.01,WSW,242,1.0,-999.0,81,-99.99,,,0.00,81,weatherlink.com 1.10,2013-04-17 22:20:00,
2013-04-17 18:35:00,80.1,75.0,30.01,WSW,242,0.0,-999.0,83,-99.99,,,0.00,47,weatherlink.com 1.10,2013-04-17 22:35:00,
2013-04-17 18:50:00,79.6,74.0,30.01,SW,233,3.0,-999.0,84,-99.99,,,0.00,62,weatherlink.com 1.10,2013-04-17 22:50:00,
2013-04-17 19:05:00,79.5,75.0,30.01,SW,222,0.0,-999.0,85,-99.99,,,0.00,114,weatherlink.com 1.10,2013-04-17 23:05:00,
2013-04-17 19:20:00,79.7,75.0,30.01,SW,230,0.0,-999.0,84,-99.99,,,0.00,49,weatherlink.com 1.10,2013-04-17 23:20:00,
2013-04-17 19:35:00,79.5,74.0,30.02,SW,220,0.0,-999.0,84,-99.99,,,0.00,28,weatherlink.com 1.10,2013-04-17 23:35:00,
2013-04-17 19:50:00,77.8,73.0,30.03,SSE,149,0.0,-999.0,84,-99.99,,,0.00,0,weatherlink.com 1.10,2013-04-17 23:50:00,
2013-04-17 20:05:00,75.2,72.0,30.04,ESE,107,0.0,-999.0,89,-99.99,,,0.23,0,weatherlink.com 1.10,2013-04-18 00:05:00,
2013-04-17 20:20:00,74.4,72.0,30.04,ESE,106,0.0,-999.0,92,-99.99,,,0.34,0,weatherlink.com 1.10,2013-04-18 00:20:00,
2013-04-17 20:35:00,74.2,72.0,30.05,ESE,106,0.0,-999.0,93,-99.99,,,0.39,0,weatherlink.com 1.10,2013-04-18 00:35:00,
2013-04-17 20:50:00,73.7,72.0,30.05,ESE,123,1.0,-999.0,93,-99.99,,,0.84,0,weatherlink.com 1.10,2013-04-18 00:50:00,
2013-04-17 21:20:00,73.2,72.0,30.04,SSE,157,0.0,-999.0,95,-99.99,,,1.12,0,weatherlink.com 1.10,2013-04-18 01:20:00,
2013-04-17 21:41:00,73.3,72.0,30.05,SSE,157,0.0,-999.0,95,-99.99,,,1.46,0,weatherlink.com 1.10,2013-04-18 01:41:00,
2013-04-17 21:50:00,73.2,72.0,30.05,SSE,157,0.0,-999.0,95,-99.99,,,1.49,0,weatherlink.com 1.10,2013-04-18 01:50:00,
2013-04-17 22:05:00,73.3,72.0,30.05,SSE,157,0.0,-999.0,95,-99.99,,,1.52,0,weatherlink.com 1.10,2013-04-18 02:05:00,
2013-04-17 22:20:00,73.3,72.0,30.05,SSE,157,0.0,-999.0,95,-99.99,,,1.54,0,weatherlink.com 1.10,2013-04-18 02:20:00,
2013-04-17 22:35:00,73.1,72.0,30.05,SSE,157,0.0,-999.0,96,-99.99,,,1.56,0,weatherlink.com 1.10,2013-04-18 02:35:00,
2013-04-17 22:50:00,73.1,72.0,30.05,SSE,157,0.0,-999.0,96,-99.99,,,1.56,0,weatherlink.com 1.10,2013-04-18 02:50:00,
2013-04-17 23:05:00,73.0,72.0,30.05,SSE,157,0.0,-999.0,96,-99.99,,,1.57,0,weatherlink.com 1.10,2013-04-18 03:05:00,
2013-04-17 23:20:00,72.9,72.0,30.05,SSE,157,0.0,-999.0,96,-99.99,,,1.57,0,weatherlink.com 1.10,2013-04-18 03:20:00,
2013-04-17 23:35:00,72.7,72.0,30.05,East,82,1.0,-999.0,96,-99.99,,,1.57,0,weatherlink.com 1.10,2013-04-18 03:35:00,
2013-04-17 23:50:00,72.4,71.0,30.05,East,80,0.0,-999.0,95,-99.99,,,1.57,0,weatherlink.com 1.10,2013-04-18 03:50:00,